Time,TemperatureF,DewpointF,PressureIn,WindDirection,WindDirectionDegrees,WindSpeedMPH,WindSpeedGustMPH,Humidity,HourlyPrecipIn,Conditions,Clouds,dailyrainin,SoftwareType,DateUTC
2013-07-09 00:03:00,72.3,69.0,30.01,West,279,0.0,1.0,90,0.00,,,0.00,weatherlink.com 1.10,2013-07-09 04:03:00,
2013-07-09 00:18:00,72.2,70.0,30.01,West,279,0.0,0.0,91,0.00,,,0.00,weatherlink.com 1.10,2013-07-09 04:18:00,
2013-07-09 00:33:00,71.9,69.0,30.01,West,279,0.0,0.0,91,0.00,,,0.00,weatherlink.com 1.10,2013-07-09 04:33:00,
2013-07-09 00:49:00,71.7,69.0,30.01,West,279,0.0,0.0,91,0.00,,,0.00,weatherlink.com 1.10,2013-07-09 04:49:00,
2013-07-09 01:04:00,71.5,69.0,30.01,West,279,0.0,0.0,92,0.00,,,0.00,weatherlink.com 1.10,2013-07-09 05:04:00,
2013-07-09 01:19:00,71.2,69.0,30.00,West,279,0.0,0.0,92,0.00,,,0.00,weatherlink.com 1.10,2013-07-09 05:19:00,
2013-07-09 01:34:00,70.9,69.0,30.00,West,279,0.0,0.0,92,0.00,,,0.00,weatherlink.com 1.10,2013-07-09 05:34:00,
2013-07-09 01:49:00,70.9,69.0,30.00,West,281,0.0,1.0,93,0.00,,,0.00,weatherlink.com 1.10,2013-07-09 05:49:00,
2013-07-09 02:04:00,70.6,68.0,30.00,West,281,0.0,0.0,92,0.00,,,0.00,weatherlink.com 1.10,2013-07-09 06:04:00,
2013-07-09 02:19:00,70.6,68.0,30.00,West,281,0.0,0.0,92,0.00,,,0.00,weatherlink.com 1.10,2013-07-09 06:19:00,
2013-07-09 02:34:00,70.4,68.0,30.00,West,281,0.0,0.0,92,0.00,,,0.00,weatherlink.com 1.10,2013-07-09 06:34:00,
2013-07-09 02:49:00,70.0,68.0,30.00,West,281,0.0,1.0,93,0.00,,,0.00,weatherlink.com 1.10,2013-07-09 06:49:00,
2013-07-09 03:04:00,69.8,68.0,30.00,West,281,0.0,0.0,94,0.00,,,0.00,weatherlink.com 1.10,2013-07-09 07:04:00,
2013-07-09 03:19:00,69.5,68.0,30.00,West,281,0.0,0.0,94,0.00,,,0.00,weatherlink.com 1.10,2013-07-09 07:19:00,
2013-07-09 03:34:00,69.4,68.0,30.00,West,281,0.0,0.0,94,0.00,,,0.00,weatherlink.com 1.10,2013-07-09 07:34:00,
2013-07-09 04:04:00,69.7,68.0,30.00,West,281,0.0,1.0,95,0.00,,,0.00,weatherlink.com 1.10,2013-07-09 08:04:00,
2013-07-09 04:19:00,69.8,68.0,30.00,West,281,0.0,0.0,94,0.00,,,0.00,weatherlink.com 1.10,2013-07-09 08:19:00,
2013-07-09 04:34:00,69.8,68.0,30.00,West,281,0.0,0.0,94,0.00,,,0.00,weatherlink.com 1.10,2013-07-09 08:34:00,
2013-07-09 04:49:00,69.9,68.0,30.00,West,281,0.0,0.0,94,0.00,,,0.00,weatherlink.com 1.10,2013-07-09 08:49:00,
2013-07-09 05:04:00,69.9,68.0,30.00,West,281,0.0,0.0,94,0.00,,,0.00,weatherlink.com 1.10,2013-07-09 09:04:00,
2013-07-09 05:19:00,69.8,68.0,30.00,West,281,0.0,0.0,94,0.00,,,0.00,weatherlink.com 1.10,2013-07-09 09:19:00,
2013-07-09 05:34:00,69.7,68.0,30.01,West,281,0.0,0.0,94,0.00,,,0.00,weatherlink.com 1.10,2013-07-09 09:34:00,
2013-07-09 05:49:00,69.7,68.0,30.01,WNW,296,0.0,1.0,94,0.00,,,0.00,weatherlink.com 1.10,2013-07-09 09:49:00,
2013-07-09 06:04:00,69.8,68.0,30.01,WNW,296,0.0,0.0,94,0.00,,,0.00,weatherlink.com 1.10,2013-07-09 10:04:00,
2013-07-09 06:19:00,70.0,68.0,30.01,WNW,296,0.0,0.0,94,0.00,,,0.00,weatherlink.com 1.10,2013-07-09 10:19:00,
2013-07-09 06:34:00,70.0,68.0,30.01,WNW,296,0.0,0.0,94,0.00,,,0.00,weatherlink.com 1.10,2013-07-09 10:34:00,
2013-07-09 06:49:00,70.3,69.0,30.02,WNW,296,0.0,0.0,94,0.00,,,0.00,weatherlink.com 1.10,2013-07-09 10:49:00,
2013-07-09 07:04:00,70.5,69.0,30.02,WNW,296,0.0,0.0,94,0.00,,,0.00,weatherlink.com 1.10,2013-07-09 11:04:00,
2013-07-09 07:19:00,70.8,69.0,30.02,WNW,296,0.0,0.0,94,0.00,,,0.00,weatherlink.com 1.10,2013-07-09 11:19:00,
2013-07-09 07:34:00,71.2,69.0,30.02,WNW,296,0.0,0.0,93,0.00,,,0.00,weatherlink.com 1.10,2013-07-09 11:34:00,
2013-07-09 07:49:00,71.5,69.0,30.02,WNW,296,0.0,0.0,93,0.00,,,0.00,weatherlink.com 1.10,2013-07-09 11:49:00,
2013-07-09 08:04:00,71.7,69.0,30.02,WNW,296,0.0,0.0,92,0.00,,,0.00,weatherlink.com 1.10,2013-07-09 12:04:00,
2013-07-09 08:19:00,72.0,70.0,30.02,WNW,296,0.0,0.0,93,0.00,,,0.00,weatherlink.com 1.10,2013-07-09 12:19:00,
2013-07-09 08:34:00,72.5,70.0,30.02,WNW,296,0.0,1.0,92,0.00,,,0.00,weatherlink.com 1.10,2013-07-09 12:34:00,
2013-07-09 08:49:00,73.2,70.0,30.02,WNW,296,0.0,0.0,90,0.00,,,0.00,weatherlink.com 1.10,2013-07-09 12:49:00,
2013-07-09 09:04:00,73.7,70.0,30.02,WNW,296,0.0,1.0,89,0.00,,,0.00,weatherlink.com 1.10,2013-07-09 13:04:00,
2013-07-09 09:19:00,74.3,71.0,30.02,WNW,296,0.0,0.0,90,0.00,,,0.00,weatherlink.com 1.10,2013-07-09 13:19:00,
2013-07-09 09:34:00,74.9,71.0,30.03,NE,53,0.0,0.0,87,0.00,,,0.00,weatherlink.com 1.10,2013-07-09 13:34:00,
2013-07-09 09:49:00,75.8,71.0,30.03,NE,53,1.0,1.0,86,0.00,,,0.00,weatherlink.com 1.10,2013-07-09 13:49:00,
2013-07-09 10:04:00,76.2,71.0,30.03,ESE,104,0.0,3.0,83,0.00,,,0.00,weatherlink.com 1.10,2013-07-09 14:04:00,
2013-07-09 10:20:00,76.0,71.0,30.03,ESE,120,0.0,1.0,84,0.00,,,0.00,weatherlink.com 1.10,2013-07-09 14:20:00,
2013-07-09 10:35:00,76.5,72.0,30.03,ESE,120,0.0,0.0,85,0.00,,,0.00,weatherlink.com 1.10,2013-07-09 14:35:00,
2013-07-09 10:49:00,77.2,71.0,30.03,East,86,0.0,1.0,82,0.00,,,0.00,weatherlink.com 1.10,2013-07-09 14:49:00,
2013-07-09 11:05:00,76.6,72.0,30.02,ENE,75,2.0,4.0,84,0.00,,,0.00,weatherlink.com 1.10,2013-07-09 15:05:00,
2013-07-09 11:20:00,76.4,72.0,30.02,East,91,1.0,3.0,85,0.00,,,0.00,weatherlink.com 1.10,2013-07-09 15:20:00,
2013-07-09 11:35:00,76.9,71.0,30.01,East,98,0.0,5.0,83,0.00,,,0.00,weatherlink.com 1.10,2013-07-09 15:35:00,
2013-07-09 11:50:00,77.3,72.0,30.02,NNW,342,1.0,2.0,83,0.00,,,0.00,weatherlink.com 1.10,2013-07-09 15:50:00,
2013-07-09 12:05:00,77.6,72.0,30.02,SW,216,0.0,2.0,82,0.00,,,0.00,weatherlink.com 1.10,2013-07-09 16:05:00,
2013-07-09 12:20:00,78.0,72.0,30.02,ESE,108,0.0,1.0,82,0.00,,,0.00,weatherlink.com 1.10,2013-07-09 16:20:00,
2013-07-09 12:35:00,78.0,73.0,30.02,SE,126,0.0,1.0,83,0.00,,,0.00,weatherlink.com 1.10,2013-07-09 16:35:00,
2013-07-09 12:50:00,78.3,75.0,30.03,WNW,289,2.0,2.0,88,0.01,,,0.01,weatherlink.com 1.10,2013-07-09 16:50:00,
2013-07-09 13:05:00,77.3,73.0,30.04,WNW,293,3.0,4.0,87,0.05,,,0.05,weatherlink.com 1.10,2013-07-09 17:05:00,
2013-07-09 13:20:00,75.9,72.0,30.03,SSW,200,0.0,4.0,88,0.08,,,0.08,weatherlink.com 1.10,2013-07-09 17:20:00,
2013-07-09 13:35:00,73.9,71.0,30.01,East,87,1.0,3.0,90,0.09,,,0.09,weatherlink.com 1.10,2013-07-09 17:35:00,
2013-07-09 13:50:00,73.1,71.0,30.01,East,86,0.0,1.0,92,0.08,,,0.09,weatherlink.com 1.10,2013-07-09 17:50:00,
2013-07-09 14:05:00,73.1,71.0,30.00,East,82,0.0,1.0,93,0.04,,,0.09,weatherlink.com 1.10,2013-07-09 18:05:00,
2013-07-09 14:20:00,73.5,71.0,30.00,ESE,111,0.0,2.0,93,0.01,,,0.09,weatherlink.com 1.10,2013-07-09 18:20:00,
2013-07-09 14:35:00,74.7,72.0,29.99,ESE,105,1.0,2.0,92,0.00,,,0.09,weatherlink.com 1.10,2013-07-09 18:35:00,
2013-07-09 14:50:00,75.8,73.0,29.99,ESE,119,0.0,3.0,90,0.00,,,0.09,weatherlink.com 1.10,2013-07-09 18:50:00,
2013-07-09 15:05:00,76.8,73.0,29.99,East,89,0.0,2.0,87,0.00,,,0.09,weatherlink.com 1.10,2013-07-09 19:05:00,
2013-07-09 15:20:00,77.5,73.0,29.98,East,91,0.0,2.0,87,0.00,,,0.09,weatherlink.com 1.10,2013-07-09 19:20:00,
2013-07-09 15:35:00,79.4,74.0,29.97,NE,42,1.0,4.0,82,0.00,,,0.09,weatherlink.com 1.10,2013-07-09 19:35:00,
2013-07-09 15:50:00,80.3,74.0,29.96,NW,322,0.0,5.0,82,0.00,,,0.09,weatherlink.com 1.10,2013-07-09 19:50:00,
2013-07-09 16:06:00,81.7,74.0,29.95,ESE,113,1.0,4.0,77,0.00,,,0.09,weatherlink.com 1.10,2013-07-09 20:06:00,
2013-07-09 16:20:00,82.7,75.0,29.95,East,101,0.0,3.0,77,0.00,,,0.09,weatherlink.com 1.10,2013-07-09 20:20:00,
2013-07-09 16:36:00,84.0,74.0,29.94,SE,131,1.0,4.0,71,0.00,,,0.09,weatherlink.com 1.10,2013-07-09 20:36:00,
2013-07-09 16:51:00,84.7,73.0,29.94,NW,309,2.0,4.0,68,0.00,,,0.09,weatherlink.com 1.10,2013-07-09 20:51:00,
2013-07-09 17:05:00,84.8,71.0,29.93,SSE,158,0.0,4.0,64,0.00,,,0.09,weatherlink.com 1.10,2013-07-09 21:05:00,
2013-07-09 17:20:00,84.3,72.0,29.93,SE,140,0.0,5.0,66,0.01,,,0.10,weatherlink.com 1.10,2013-07-09 21:20:00,
2013-07-09 17:35:00,84.2,73.0,29.92,ESE,119,0.0,5.0,69,0.01,,,0.10,weatherlink.com 1.10,2013-07-09 21:35:00,
2013-07-09 17:50:00,84.3,73.0,29.92,ESE,114,0.0,4.0,69,0.01,,,0.10,weatherlink.com 1.10,2013-07-09 21:50:00,
2013-07-09 18:06:00,84.5,73.0,29.92,ESE,123,0.0,3.0,69,0.01,,,0.10,weatherlink.com 1.10,2013-07-09 22:06:00,
2013-07-09 18:21:00,84.6,73.0,29.91,East,100,0.0,4.0,68,0.00,,,0.10,weatherlink.com 1.10,2013-07-09 22:21:00,
2013-07-09 18:36:00,84.5,73.0,29.91,ENE,76,0.0,2.0,69,0.00,,,0.10,weatherlink.com 1.10,2013-07-09 22:36:00,
2013-07-09 18:51:00,84.2,73.0,29.91,East,97,0.0,2.0,68,0.00,,,0.10,weatherlink.com 1.10,2013-07-09 22:51:00,
2013-07-09 19:06:00,83.3,72.0,29.91,ESE,111,0.0,2.0,68,0.00,,,0.10,weatherlink.com 1.10,2013-07-09 23:06:00,
2013-07-09 19:21:00,82.9,72.0,29.91,ESE,113,0.0,1.0,70,0.00,,,0.10,weatherlink.com 1.10,2013-07-09 23:21:00,
2013-07-09 19:36:00,82.8,73.0,29.92,ESE,113,0.0,0.0,71,0.00,,,0.10,weatherlink.com 1.10,2013-07-09 23:36:00,
2013-07-09 19:51:00,82.1,73.0,29.92,ESE,113,0.0,1.0,73,0.00,,,0.10,weatherlink.com 1.10,2013-07-09 23:51:00,
2013-07-09 20:06:00,81.5,73.0,29.92,ESE,115,0.0,0.0,75,0.00,,,0.10,weatherlink.com 1.10,2013-07-10 00:06:00,
2013-07-09 20:21:00,81.0,73.0,29.92,ESE,115,0.0,0.0,77,0.00,,,0.10,weatherlink.com 1.10,2013-07-10 00:21:00,
2013-07-09 20:36:00,80.3,73.0,29.92,ESE,115,0.0,0.0,78,0.00,,,0.10,weatherlink.com 1.10,2013-07-10 00:36:00,
2013-07-09 20:51:00,79.7,73.0,29.93,ESE,115,0.0,0.0,80,0.00,,,0.10,weatherlink.com 1.10,2013-07-10 00:51:00,
2013-07-09 21:06:00,79.1,73.0,29.93,ESE,115,0.0,0.0,82,0.00,,,0.10,weatherlink.com 1.10,2013-07-10 01:06:00,
2013-07-09 21:21:00,78.3,73.0,29.94,ESE,115,0.0,0.0,83,0.00,,,0.10,weatherlink.com 1.10,2013-07-10 01:21:00,
2013-07-09 21:36:00,77.8,73.0,29.95,ESE,115,0.0,0.0,84,0.00,,,0.10,weatherlink.com 1.10,2013-07-10 01:36:00,
2013-07-09 21:51:00,77.4,72.0,29.95,ESE,115,0.0,0.0,84,0.00,,,0.10,weatherlink.com 1.10,2013-07-10 01:51:00,
2013-07-09 22:06:00,77.0,72.0,29.95,ESE,115,0.0,0.0,85,0.00,,,0.10,weatherlink.com 1.10,2013-07-10 02:06:00,
2013-07-09 22:21:00,76.6,72.0,29.95,ESE,112,0.0,1.0,85,0.00,,,0.10,weatherlink.com 1.10,2013-07-10 02:21:00,
2013-07-09 22:36:00,76.3,71.0,29.95,SSW,209,0.0,2.0,84,0.00,,,0.10,weatherlink.com 1.10,2013-07-10 02:36:00,
2013-07-09 22:51:00,76.0,71.0,29.94,WSW,258,0.0,1.0,84,0.00,,,0.10,weatherlink.com 1.10,2013-07-10 02:51:00,
2013-07-09 23:06:00,75.6,71.0,29.94,WSW,258,0.0,0.0,85,0.00,,,0.10,weatherlink.com 1.10,2013-07-10 03:06:00,
2013-07-09 23:21:00,75.2,71.0,29.93,WSW,258,0.0,0.0,86,0.00,,,0.10,weatherlink.com 1.10,2013-07-10 03:21:00,
2013-07-09 23:36:00,74.9,71.0,29.93,WSW,258,0.0,0.0,88,0.00,,,0.10,weatherlink.com 1.10,2013-07-10 03:36:00,
2013-07-09 23:51:00,74.3,71.0,29.93,WSW,258,0.0,0.0,89,0.00,,,0.10,weatherlink.com 1.10,2013-07-10 03:51:00,